sensor_id;sensor_type;location;lat;lon;timestamp;temperature;humidity
12060;DHT22;6091;51.432;6.880;2023-09-19T00:00:57;28.20;44.20
12060;DHT22;6091;51.432;6.880;2023-09-19T00:03:24;28.20;44.20
12060;DHT22;6091;51.432;6.880;2023-09-19T00:05:55;28.20;44.20
12060;DHT22;6091;51.432;6.880;2023-09-19T00:08:24;28.20;44.20
12060;DHT22;6091;51.432;6.880;2023-09-19T00:10:54;28.20;44.30
12060;DHT22;6091;51.432;6.880;2023-09-19T00:13:21;28.20;44.30
12060;DHT22;6091;51.432;6.880;2023-09-19T00:15:49;28.20;44.20
12060;DHT22;6091;51.432;6.880;2023-09-19T00:18:20;28.20;44.30
12060;DHT22;6091;51.432;6.880;2023-09-19T00:20:49;28.20;44.30
12060;DHT22;6091;51.432;6.880;2023-09-19T00:23:19;28.20;44.30
12060;DHT22;6091;51.432;6.880;2023-09-19T00:25:47;28.20;44.30
12060;DHT22;6091;51.432;6.880;2023-09-19T00:28:15;28.20;44.30
12060;DHT22;6091;51.432;6.880;2023-09-19T00:30:45;28.10;44.20
12060;DHT22;6091;51.432;6.880;2023-09-19T00:33:18;28.10;44.20
12060;DHT22;6091;51.432;6.880;2023-09-19T00:35:50;28.10;44.20
12060;DHT22;6091;51.432;6.880;2023-09-19T00:38:19;28.10;44.30
12060;DHT22;6091;51.432;6.880;2023-09-19T00:40:54;28.10;44.20
12060;DHT22;6091;51.432;6.880;2023-09-19T00:43:27;28.10;44.30
12060;DHT22;6091;51.432;6.880;2023-09-19T00:45:56;28.10;44.30
12060;DHT22;6091;51.432;6.880;2023-09-19T00:48:24;28.10;44.30
12060;DHT22;6091;51.432;6.880;2023-09-19T00:50:55;28.10;44.30
12060;DHT22;6091;51.432;6.880;2023-09-19T00:53:26;28.10;44.30
12060;DHT22;6091;51.432;6.880;2023-09-19T00:55:54;28.10;44.30
12060;DHT22;6091;51.432;6.880;2023-09-19T00:58:23;28.00;44.20
12060;DHT22;6091;51.432;6.880;2023-09-19T01:00:50;28.00;44.20
12060;DHT22;6091;51.432;6.880;2023-09-19T01:03:18;28.00;44.20
12060;DHT22;6091;51.432;6.880;2023-09-19T01:05:45;28.00;44.20
12060;DHT22;6091;51.432;6.880;2023-09-19T01:08:13;28.00;44.30
12060;DHT22;6091;51.432;6.880;2023-09-19T01:10:52;28.00;44.30
12060;DHT22;6091;51.432;6.880;2023-09-19T01:13:35;28.00;44.30
12060;DHT22;6091;51.432;6.880;2023-09-19T01:21:46;28.00;44.30
12060;DHT22;6091;51.432;6.880;2023-09-19T01:30:14;27.90;44.20
12060;DHT22;6091;51.432;6.880;2023-09-19T01:32:46;27.90;44.20
12060;DHT22;6091;51.432;6.880;2023-09-19T01:35:13;27.80;44.20
12060;DHT22;6091;51.432;6.880;2023-09-19T01:37:40;27.90;44.20
12060;DHT22;6091;51.432;6.880;2023-09-19T01:40:17;27.90;44.30
12060;DHT22;6091;51.432;6.880;2023-09-19T01:51:20;27.90;44.30
12060;DHT22;6091;51.432;6.880;2023-09-19T01:54:10;27.90;44.30
12060;DHT22;6091;51.432;6.880;2023-09-19T01:56:49;27.80;44.30
12060;DHT22;6091;51.432;6.880;2023-09-19T01:59:34;27.90;44.30
12060;DHT22;6091;51.432;6.880;2023-09-19T02:02:06;27.80;44.30
12060;DHT22;6091;51.432;6.880;2023-09-19T02:04:35;27.80;44.30
12060;DHT22;6091;51.432;6.880;2023-09-19T02:07:03;27.80;44.30
12060;DHT22;6091;51.432;6.880;2023-09-19T02:09:32;27.80;44.30
12060;DHT22;6091;51.432;6.880;2023-09-19T02:12:02;27.80;44.30
12060;DHT22;6091;51.432;6.880;2023-09-19T02:14:31;27.80;44.30
12060;DHT22;6091;51.432;6.880;2023-09-19T02:16:58;27.70;44.20
12060;DHT22;6091;51.432;6.880;2023-09-19T02:19:27;27.80;44.30
12060;DHT22;6091;51.432;6.880;2023-09-19T02:21:54;27.70;44.20
12060;DHT22;6091;51.432;6.880;2023-09-19T02:24:22;27.70;44.30
12060;DHT22;6091;51.432;6.880;2023-09-19T02:26:53;27.70;44.30
12060;DHT22;6091;51.432;6.880;2023-09-19T02:29:21;27.70;44.30
12060;DHT22;6091;51.432;6.880;2023-09-19T02:31:49;27.70;44.20
12060;DHT22;6091;51.432;6.880;2023-09-19T02:34:16;27.70;44.30
12060;DHT22;6091;51.432;6.880;2023-09-19T02:36:43;27.70;44.20
12060;DHT22;6091;51.432;6.880;2023-09-19T02:39:11;27.70;44.20
12060;DHT22;6091;51.432;6.880;2023-09-19T02:41:39;27.70;44.20
12060;DHT22;6091;51.432;6.880;2023-09-19T02:44:08;27.70;44.20
12060;DHT22;6091;51.432;6.880;2023-09-19T02:46:35;27.70;44.30
12060;DHT22;6091;51.432;6.880;2023-09-19T02:49:05;27.70;44.20
12060;DHT22;6091;51.432;6.880;2023-09-19T02:51:33;27.70;44.20
12060;DHT22;6091;51.432;6.880;2023-09-19T02:54:01;27.70;44.30
12060;DHT22;6091;51.432;6.880;2023-09-19T02:56:29;27.70;44.20
12060;DHT22;6091;51.432;6.880;2023-09-19T02:59:00;27.60;44.20
12060;DHT22;6091;51.432;6.880;2023-09-19T03:01:27;27.70;44.20
12060;DHT22;6091;51.432;6.880;2023-09-19T03:03:55;27.60;44.20
12060;DHT22;6091;51.432;6.880;2023-09-19T03:06:22;27.60;44.10
12060;DHT22;6091;51.432;6.880;2023-09-19T03:08:50;27.60;44.10
12060;DHT22;6091;51.432;6.880;2023-09-19T03:11:18;27.30;44.00
12060;DHT22;6091;51.432;6.880;2023-09-19T03:13:53;27.60;44.20
12060;DHT22;6091;51.432;6.880;2023-09-19T03:16:21;27.60;44.20
12060;DHT22;6091;51.432;6.880;2023-09-19T03:18:52;27.60;44.20
12060;DHT22;6091;51.432;6.880;2023-09-19T03:21:19;27.60;44.20
12060;DHT22;6091;51.432;6.880;2023-09-19T03:23:46;27.60;44.10
12060;DHT22;6091;51.432;6.880;2023-09-19T03:26:13;27.60;44.10
12060;DHT22;6091;51.432;6.880;2023-09-19T03:28:43;27.60;44.10
12060;DHT22;6091;51.432;6.880;2023-09-19T03:31:10;27.60;44.20
12060;DHT22;6091;51.432;6.880;2023-09-19T03:33:38;27.60;44.10
12060;DHT22;6091;51.432;6.880;2023-09-19T03:36:05;27.60;44.30
12060;DHT22;6091;51.432;6.880;2023-09-19T03:38:33;27.60;44.10
12060;DHT22;6091;51.432;6.880;2023-09-19T03:41:02;27.60;44.10
12060;DHT22;6091;51.432;6.880;2023-09-19T03:43:29;27.60;44.10
12060;DHT22;6091;51.432;6.880;2023-09-19T03:46:02;27.60;44.10
12060;DHT22;6091;51.432;6.880;2023-09-19T03:48:31;27.50;44.10
12060;DHT22;6091;51.432;6.880;2023-09-19T03:50:58;27.50;44.10
12060;DHT22;6091;51.432;6.880;2023-09-19T03:53:25;27.60;44.10
12060;DHT22;6091;51.432;6.880;2023-09-19T03:55:52;27.50;44.10
12060;DHT22;6091;51.432;6.880;2023-09-19T03:58:19;27.50;44.00
12060;DHT22;6091;51.432;6.880;2023-09-19T04:00:47;27.50;44.00
12060;DHT22;6091;51.432;6.880;2023-09-19T04:03:16;27.50;44.10
12060;DHT22;6091;51.432;6.880;2023-09-19T04:05:47;27.50;44.00
12060;DHT22;6091;51.432;6.880;2023-09-19T04:08:15;27.50;44.00
12060;DHT22;6091;51.432;6.880;2023-09-19T04:10:43;27.50;44.00
12060;DHT22;6091;51.432;6.880;2023-09-19T04:13:12;27.50;44.00
12060;DHT22;6091;51.432;6.880;2023-09-19T04:15:39;27.50;44.00
12060;DHT22;6091;51.432;6.880;2023-09-19T04:18:07;27.50;44.60
12060;DHT22;6091;51.432;6.880;2023-09-19T04:20:34;27.50;44.00
12060;DHT22;6091;51.432;6.880;2023-09-19T04:23:01;27.50;44.00
12060;DHT22;6091;51.432;6.880;2023-09-19T04:25:29;27.50;44.00
12060;DHT22;6091;51.432;6.880;2023-09-19T04:27:56;27.40;43.90
12060;DHT22;6091;51.432;6.880;2023-09-19T04:30:24;27.40;43.90
12060;DHT22;6091;51.432;6.880;2023-09-19T04:32:54;27.40;44.00
12060;DHT22;6091;51.432;6.880;2023-09-19T04:35:21;27.40;43.90
12060;DHT22;6091;51.432;6.880;2023-09-19T04:37:48;27.40;43.90
12060;DHT22;6091;51.432;6.880;2023-09-19T04:40:17;27.40;44.00
12060;DHT22;6091;51.432;6.880;2023-09-19T04:42:53;27.40;44.60
12060;DHT22;6091;51.432;6.880;2023-09-19T04:45:27;27.40;43.90
12060;DHT22;6091;51.432;6.880;2023-09-19T04:47:55;27.40;43.90
12060;DHT22;6091;51.432;6.880;2023-09-19T04:50:23;27.40;43.90
12060;DHT22;6091;51.432;6.880;2023-09-19T04:52:54;27.40;43.90
12060;DHT22;6091;51.432;6.880;2023-09-19T04:55:21;27.40;43.90
12060;DHT22;6091;51.432;6.880;2023-09-19T04:57:49;27.40;43.90
12060;DHT22;6091;51.432;6.880;2023-09-19T05:00:18;27.40;43.90
12060;DHT22;6091;51.432;6.880;2023-09-19T05:02:55;27.40;43.90
12060;DHT22;6091;51.432;6.880;2023-09-19T05:05:26;27.40;43.90
12060;DHT22;6091;51.432;6.880;2023-09-19T05:07:53;27.40;43.90
12060;DHT22;6091;51.432;6.880;2023-09-19T05:10:21;27.40;43.90
12060;DHT22;6091;51.432;6.880;2023-09-19T05:12:49;27.40;43.90
12060;DHT22;6091;51.432;6.880;2023-09-19T05:15:19;27.40;43.90
12060;DHT22;6091;51.432;6.880;2023-09-19T05:17:51;27.30;43.90
12060;DHT22;6091;51.432;6.880;2023-09-19T05:20:22;27.40;43.90
12060;DHT22;6091;51.432;6.880;2023-09-19T05:23:04;27.30;43.90
12060;DHT22;6091;51.432;6.880;2023-09-19T05:25:35;27.40;43.90
12060;DHT22;6091;51.432;6.880;2023-09-19T05:28:08;27.30;43.90
12060;DHT22;6091;51.432;6.880;2023-09-19T05:30:38;27.30;43.80
12060;DHT22;6091;51.432;6.880;2023-09-19T05:33:07;27.30;43.90
12060;DHT22;6091;51.432;6.880;2023-09-19T05:35:35;27.30;43.90
12060;DHT22;6091;51.432;6.880;2023-09-19T05:38:08;27.30;43.90
12060;DHT22;6091;51.432;6.880;2023-09-19T05:40:36;27.30;43.80
12060;DHT22;6091;51.432;6.880;2023-09-19T05:43:05;27.30;44.40
12060;DHT22;6091;51.432;6.880;2023-09-19T05:45:32;27.30;43.80
12060;DHT22;6091;51.432;6.880;2023-09-19T05:48:08;27.30;43.80
12060;DHT22;6091;51.432;6.880;2023-09-19T05:50:40;27.30;43.90
12060;DHT22;6091;51.432;6.880;2023-09-19T05:53:08;27.30;43.80
12060;DHT22;6091;51.432;6.880;2023-09-19T05:55:38;27.30;43.80
12060;DHT22;6091;51.432;6.880;2023-09-19T05:58:05;27.30;43.80
12060;DHT22;6091;51.432;6.880;2023-09-19T06:00:33;27.30;43.80
12060;DHT22;6091;51.432;6.880;2023-09-19T06:03:04;27.30;43.80
12060;DHT22;6091;51.432;6.880;2023-09-19T06:05:31;27.30;43.80
12060;DHT22;6091;51.432;6.880;2023-09-19T06:07:59;27.30;43.80
12060;DHT22;6091;51.432;6.880;2023-09-19T06:10:35;27.30;43.80
12060;DHT22;6091;51.432;6.880;2023-09-19T06:13:05;27.30;43.80
12060;DHT22;6091;51.432;6.880;2023-09-19T06:15:33;27.30;43.80
12060;DHT22;6091;51.432;6.880;2023-09-19T06:18:03;27.30;43.80
12060;DHT22;6091;51.432;6.880;2023-09-19T06:20:32;27.30;43.80
12060;DHT22;6091;51.432;6.880;2023-09-19T06:23:00;27.30;43.80
12060;DHT22;6091;51.432;6.880;2023-09-19T06:25:32;27.20;43.70
12060;DHT22;6091;51.432;6.880;2023-09-19T06:28:01;27.30;43.70
12060;DHT22;6091;51.432;6.880;2023-09-19T06:30:32;27.30;43.70
12060;DHT22;6091;51.432;6.880;2023-09-19T06:33:04;27.30;43.60
12060;DHT22;6091;51.432;6.880;2023-09-19T06:35:34;27.20;43.60
12060;DHT22;6091;51.432;6.880;2023-09-19T06:38:03;27.30;43.60
12060;DHT22;6091;51.432;6.880;2023-09-19T06:40:31;27.30;43.60
12060;DHT22;6091;51.432;6.880;2023-09-19T06:42:58;27.30;43.60
12060;DHT22;6091;51.432;6.880;2023-09-19T06:45:29;27.30;43.60
12060;DHT22;6091;51.432;6.880;2023-09-19T06:47:56;27.30;43.60
12060;DHT22;6091;51.432;6.880;2023-09-19T06:50:26;27.30;43.60
12060;DHT22;6091;51.432;6.880;2023-09-19T06:52:55;27.30;43.50
12060;DHT22;6091;51.432;6.880;2023-09-19T06:55:38;27.30;43.50
12060;DHT22;6091;51.432;6.880;2023-09-19T06:58:05;27.40;43.30
12060;DHT22;6091;51.432;6.880;2023-09-19T07:00:33;27.40;43.40
12060;DHT22;6091;51.432;6.880;2023-09-19T07:05:47;27.40;43.40
12060;DHT22;6091;51.432;6.880;2023-09-19T07:08:15;27.40;43.40
12060;DHT22;6091;51.432;6.880;2023-09-19T07:10:42;27.40;43.30
12060;DHT22;6091;51.432;6.880;2023-09-19T07:13:16;27.50;43.40
12060;DHT22;6091;51.432;6.880;2023-09-19T07:15:44;27.50;43.40
12060;DHT22;6091;51.432;6.880;2023-09-19T07:18:16;27.50;43.40
12060;DHT22;6091;51.432;6.880;2023-09-19T07:20:44;27.50;43.30
12060;DHT22;6091;51.432;6.880;2023-09-19T07:23:19;27.50;43.30
12060;DHT22;6091;51.432;6.880;2023-09-19T07:25:50;27.60;43.30
12060;DHT22;6091;51.432;6.880;2023-09-19T07:28:20;27.60;43.40
12060;DHT22;6091;51.432;6.880;2023-09-19T07:30:47;27.60;43.40
12060;DHT22;6091;51.432;6.880;2023-09-19T07:36:00;27.60;43.40
12060;DHT22;6091;51.432;6.880;2023-09-19T07:38:28;27.70;43.30
12060;DHT22;6091;51.432;6.880;2023-09-19T07:41:01;27.70;43.40
12060;DHT22;6091;51.432;6.880;2023-09-19T07:43:29;27.70;43.40
12060;DHT22;6091;51.432;6.880;2023-09-19T07:45:57;27.70;43.40
12060;DHT22;6091;51.432;6.880;2023-09-19T07:48:29;27.70;43.40
12060;DHT22;6091;51.432;6.880;2023-09-19T07:50:56;27.80;43.50
12060;DHT22;6091;51.432;6.880;2023-09-19T07:53:29;27.80;43.50
12060;DHT22;6091;51.432;6.880;2023-09-19T07:56:07;27.80;43.40
12060;DHT22;6091;51.432;6.880;2023-09-19T07:58:44;27.90;43.90
12060;DHT22;6091;51.432;6.880;2023-09-19T08:01:12;27.80;43.30
12060;DHT22;6091;51.432;6.880;2023-09-19T08:03:40;27.80;43.20
12060;DHT22;6091;51.432;6.880;2023-09-19T08:06:10;27.90;43.20
12060;DHT22;6091;51.432;6.880;2023-09-19T08:08:37;27.90;43.20
12060;DHT22;6091;51.432;6.880;2023-09-19T08:11:05;27.90;43.10
12060;DHT22;6091;51.432;6.880;2023-09-19T08:13:39;27.80;43.10
12060;DHT22;6091;51.432;6.880;2023-09-19T08:16:16;27.90;43.00
12060;DHT22;6091;51.432;6.880;2023-09-19T08:18:48;28.00;43.20
12060;DHT22;6091;51.432;6.880;2023-09-19T08:21:19;28.00;43.00
12060;DHT22;6091;51.432;6.880;2023-09-19T08:23:47;28.00;43.00
12060;DHT22;6091;51.432;6.880;2023-09-19T08:26:15;28.10;43.00
12060;DHT22;6091;51.432;6.880;2023-09-19T08:28:46;28.00;43.10
12060;DHT22;6091;51.432;6.880;2023-09-19T08:31:13;28.00;42.90
12060;DHT22;6091;51.432;6.880;2023-09-19T08:33:40;28.10;43.50
12060;DHT22;6091;51.432;6.880;2023-09-19T08:36:08;28.00;42.90
12060;DHT22;6091;51.432;6.880;2023-09-19T08:38:36;28.10;42.90
12060;DHT22;6091;51.432;6.880;2023-09-19T08:41:07;28.10;42.80
12060;DHT22;6091;51.432;6.880;2023-09-19T08:43:35;28.10;42.80
12060;DHT22;6091;51.432;6.880;2023-09-19T08:46:15;28.20;42.90
12060;DHT22;6091;51.432;6.880;2023-09-19T08:49:08;28.20;42.70
12060;DHT22;6091;51.432;6.880;2023-09-19T08:51:45;28.30;42.70
12060;DHT22;6091;51.432;6.880;2023-09-19T08:54:25;28.30;42.80
12060;DHT22;6091;51.432;6.880;2023-09-19T08:57:02;28.30;42.60
12060;DHT22;6091;51.432;6.880;2023-09-19T08:59:38;27.80;42.40
12060;DHT22;6091;51.432;6.880;2023-09-19T09:02:14;28.30;42.70
12060;DHT22;6091;51.432;6.880;2023-09-19T09:04:43;28.30;42.50
12060;DHT22;6091;51.432;6.880;2023-09-19T09:07:12;28.40;42.70
12060;DHT22;6091;51.432;6.880;2023-09-19T09:09:40;28.40;42.70
12060;DHT22;6091;51.432;6.880;2023-09-19T09:12:11;28.40;42.70
12060;DHT22;6091;51.432;6.880;2023-09-19T09:14:42;28.40;42.60
12060;DHT22;6091;51.432;6.880;2023-09-19T09:17:14;28.40;42.70
12060;DHT22;6091;51.432;6.880;2023-09-19T09:19:42;28.50;42.70
12060;DHT22;6091;51.432;6.880;2023-09-19T09:22:11;28.50;42.60
12060;DHT22;6091;51.432;6.880;2023-09-19T09:24:54;28.50;42.70
12060;DHT22;6091;51.432;6.880;2023-09-19T09:27:25;28.50;42.50
12060;DHT22;6091;51.432;6.880;2023-09-19T09:29:56;28.50;42.70
12060;DHT22;6091;51.432;6.880;2023-09-19T09:32:30;28.60;42.60
12060;DHT22;6091;51.432;6.880;2023-09-19T09:35:07;28.60;42.60
12060;DHT22;6091;51.432;6.880;2023-09-19T09:37:43;28.70;42.50
12060;DHT22;6091;51.432;6.880;2023-09-19T09:40:11;28.70;42.60
12060;DHT22;6091;51.432;6.880;2023-09-19T09:42:41;28.70;42.60
12060;DHT22;6091;51.432;6.880;2023-09-19T09:45:16;28.70;42.60
12060;DHT22;6091;51.432;6.880;2023-09-19T09:47:48;28.80;42.50
12060;DHT22;6091;51.432;6.880;2023-09-19T09:50:24;27.60;41.90
12060;DHT22;6091;51.432;6.880;2023-09-19T09:52:56;28.80;42.60
12060;DHT22;6091;51.432;6.880;2023-09-19T09:56:06;28.80;42.80
12060;DHT22;6091;51.432;6.880;2023-09-19T09:58:37;28.90;42.40
12060;DHT22;6091;51.432;6.880;2023-09-19T10:01:07;28.90;42.60
12060;DHT22;6091;51.432;6.880;2023-09-19T10:03:42;28.90;42.50
12060;DHT22;6091;51.432;6.880;2023-09-19T10:06:18;28.90;42.50
12060;DHT22;6091;51.432;6.880;2023-09-19T10:09:06;28.90;42.40
12060;DHT22;6091;51.432;6.880;2023-09-19T10:11:41;28.90;42.40
12060;DHT22;6091;51.432;6.880;2023-09-19T10:14:15;28.90;42.60
12060;DHT22;6091;51.432;6.880;2023-09-19T10:16:48;29.00;42.80
12060;DHT22;6091;51.432;6.880;2023-09-19T10:19:37;28.90;42.60
12060;DHT22;6091;51.432;6.880;2023-09-19T10:22:21;29.00;42.60
12060;DHT22;6091;51.432;6.880;2023-09-19T10:24:49;29.10;42.80
12060;DHT22;6091;51.432;6.880;2023-09-19T10:27:25;29.10;42.70
12060;DHT22;6091;51.432;6.880;2023-09-19T10:29:54;29.20;42.60
12060;DHT22;6091;51.432;6.880;2023-09-19T10:32:25;29.20;42.60
12060;DHT22;6091;51.432;6.880;2023-09-19T10:35:02;29.30;42.60
12060;DHT22;6091;51.432;6.880;2023-09-19T10:37:32;29.40;42.60
12060;DHT22;6091;51.432;6.880;2023-09-19T10:40:01;29.40;42.50
12060;DHT22;6091;51.432;6.880;2023-09-19T10:42:28;29.50;42.50
12060;DHT22;6091;51.432;6.880;2023-09-19T10:45:00;29.60;42.50
12060;DHT22;6091;51.432;6.880;2023-09-19T10:47:34;29.70;42.50
12060;DHT22;6091;51.432;6.880;2023-09-19T10:50:06;29.80;41.90
12060;DHT22;6091;51.432;6.880;2023-09-19T10:52:41;29.90;40.70
12060;DHT22;6091;51.432;6.880;2023-09-19T10:55:16;29.80;40.60
12060;DHT22;6091;51.432;6.880;2023-09-19T10:57:46;30.00;39.80
12060;DHT22;6091;51.432;6.880;2023-09-19T11:00:15;30.00;40.20
12060;DHT22;6091;51.432;6.880;2023-09-19T11:05:39;30.10;38.90
12060;DHT22;6091;51.432;6.880;2023-09-19T11:08:08;30.10;39.10
12060;DHT22;6091;51.432;6.880;2023-09-19T11:13:26;30.10;38.40
12060;DHT22;6091;51.432;6.880;2023-09-19T11:26:56;30.20;37.50
12060;DHT22;6091;51.432;6.880;2023-09-19T11:29:44;30.10;38.10
12060;DHT22;6091;51.432;6.880;2023-09-19T11:32:12;30.10;38.00
12060;DHT22;6091;51.432;6.880;2023-09-19T11:34:44;30.10;37.80
12060;DHT22;6091;51.432;6.880;2023-09-19T11:40:08;30.10;37.90
12060;DHT22;6091;51.432;6.880;2023-09-19T11:42:47;30.10;37.70
12060;DHT22;6091;51.432;6.880;2023-09-19T11:48:16;30.20;37.20
12060;DHT22;6091;51.432;6.880;2023-09-19T11:50:45;30.40;38.20
12060;DHT22;6091;51.432;6.880;2023-09-19T11:53:14;30.00;38.10
12060;DHT22;6091;51.432;6.880;2023-09-19T11:55:43;30.70;38.10
12060;DHT22;6091;51.432;6.880;2023-09-19T11:58:12;30.80;37.70
12060;DHT22;6091;51.432;6.880;2023-09-19T12:00:45;30.90;37.60
12060;DHT22;6091;51.432;6.880;2023-09-19T12:03:13;30.90;37.40
12060;DHT22;6091;51.432;6.880;2023-09-19T12:05:43;31.00;36.80
12060;DHT22;6091;51.432;6.880;2023-09-19T12:08:11;31.00;36.90
12060;DHT22;6091;51.432;6.880;2023-09-19T12:10:50;31.00;36.20
12060;DHT22;6091;51.432;6.880;2023-09-19T12:13:22;31.00;36.00
12060;DHT22;6091;51.432;6.880;2023-09-19T12:15:50;31.10;36.80
12060;DHT22;6091;51.432;6.880;2023-09-19T12:18:30;31.10;36.60
12060;DHT22;6091;51.432;6.880;2023-09-19T12:20:58;31.40;35.70
12060;DHT22;6091;51.432;6.880;2023-09-19T12:23:25;31.50;37.00
12060;DHT22;6091;51.432;6.880;2023-09-19T12:25:53;31.70;37.30
12060;DHT22;6091;51.432;6.880;2023-09-19T12:28:27;31.90;36.30
12060;DHT22;6091;51.432;6.880;2023-09-19T12:31:06;32.20;36.50
12060;DHT22;6091;51.432;6.880;2023-09-19T12:33:38;32.40;36.30
12060;DHT22;6091;51.432;6.880;2023-09-19T12:36:28;32.70;36.30
12060;DHT22;6091;51.432;6.880;2023-09-19T12:39:01;32.90;35.00
12060;DHT22;6091;51.432;6.880;2023-09-19T12:41:35;33.20;35.50
12060;DHT22;6091;51.432;6.880;2023-09-19T12:44:05;33.40;35.50
12060;DHT22;6091;51.432;6.880;2023-09-19T12:46:37;33.60;35.40
12060;DHT22;6091;51.432;6.880;2023-09-19T12:49:17;33.80;35.20
12060;DHT22;6091;51.432;6.880;2023-09-19T12:51:49;34.10;34.60
12060;DHT22;6091;51.432;6.880;2023-09-19T12:54:16;34.30;34.80
12060;DHT22;6091;51.432;6.880;2023-09-19T12:56:46;34.40;35.10
12060;DHT22;6091;51.432;6.880;2023-09-19T12:59:15;34.60;34.10
12060;DHT22;6091;51.432;6.880;2023-09-19T13:01:43;34.70;33.90
12060;DHT22;6091;51.432;6.880;2023-09-19T13:04:19;34.70;33.50
12060;DHT22;6091;51.432;6.880;2023-09-19T13:06:59;34.60;32.80
12060;DHT22;6091;51.432;6.880;2023-09-19T13:09:28;34.50;32.60
12060;DHT22;6091;51.432;6.880;2023-09-19T13:12:03;34.30;31.70
12060;DHT22;6091;51.432;6.880;2023-09-19T13:14:30;34.00;31.40
12060;DHT22;6091;51.432;6.880;2023-09-19T13:17:06;33.70;30.60
12060;DHT22;6091;51.432;6.880;2023-09-19T13:19:51;33.30;30.70
12060;DHT22;6091;51.432;6.880;2023-09-19T13:22:39;32.90;30.90
12060;DHT22;6091;51.432;6.880;2023-09-19T13:25:13;32.60;30.50
12060;DHT22;6091;51.432;6.880;2023-09-19T13:27:51;32.20;31.20
12060;DHT22;6091;51.432;6.880;2023-09-19T13:30:25;31.80;31.40
12060;DHT22;6091;51.432;6.880;2023-09-19T13:33:08;31.50;31.50
12060;DHT22;6091;51.432;6.880;2023-09-19T13:35:38;31.30;31.50
12060;DHT22;6091;51.432;6.880;2023-09-19T13:38:09;31.10;32.00
12060;DHT22;6091;51.432;6.880;2023-09-19T13:40:36;30.80;32.00
12060;DHT22;6091;51.432;6.880;2023-09-19T13:43:06;30.60;32.10
12060;DHT22;6091;51.432;6.880;2023-09-19T13:45:33;30.40;32.40
12060;DHT22;6091;51.432;6.880;2023-09-19T13:48:01;30.30;32.50
12060;DHT22;6091;51.432;6.880;2023-09-19T13:50:30;30.20;32.60
12060;DHT22;6091;51.432;6.880;2023-09-19T13:52:58;30.00;32.60
12060;DHT22;6091;51.432;6.880;2023-09-19T13:55:27;29.80;32.50
12060;DHT22;6091;51.432;6.880;2023-09-19T13:57:55;29.70;32.60
12060;DHT22;6091;51.432;6.880;2023-09-19T14:00:22;29.60;32.80
12060;DHT22;6091;51.432;6.880;2023-09-19T14:02:51;29.40;32.90
12060;DHT22;6091;51.432;6.880;2023-09-19T14:05:19;29.20;33.00
12060;DHT22;6091;51.432;6.880;2023-09-19T14:07:48;29.10;33.10
12060;DHT22;6091;51.432;6.880;2023-09-19T14:10:15;29.00;33.20
12060;DHT22;6091;51.432;6.880;2023-09-19T14:12:45;28.90;33.40
12060;DHT22;6091;51.432;6.880;2023-09-19T14:15:13;28.80;33.50
12060;DHT22;6091;51.432;6.880;2023-09-19T14:17:40;28.70;33.60
12060;DHT22;6091;51.432;6.880;2023-09-19T14:20:13;28.60;33.70
12060;DHT22;6091;51.432;6.880;2023-09-19T14:22:42;28.60;33.80
12060;DHT22;6091;51.432;6.880;2023-09-19T14:25:09;28.50;33.90
12060;DHT22;6091;51.432;6.880;2023-09-19T14:27:36;28.50;34.10
12060;DHT22;6091;51.432;6.880;2023-09-19T14:30:05;28.30;34.00
12060;DHT22;6091;51.432;6.880;2023-09-19T14:32:33;28.30;34.20
12060;DHT22;6091;51.432;6.880;2023-09-19T14:35:00;28.20;34.20
12060;DHT22;6091;51.432;6.880;2023-09-19T14:37:27;28.20;34.30
12060;DHT22;6091;51.432;6.880;2023-09-19T14:39:55;28.10;34.30
12060;DHT22;6091;51.432;6.880;2023-09-19T14:42:22;28.10;34.50
12060;DHT22;6091;51.432;6.880;2023-09-19T14:44:49;28.00;34.50
12060;DHT22;6091;51.432;6.880;2023-09-19T14:47:16;28.00;34.50
12060;DHT22;6091;51.432;6.880;2023-09-19T14:49:44;28.00;34.70
12060;DHT22;6091;51.432;6.880;2023-09-19T14:52:12;27.90;34.70
12060;DHT22;6091;51.432;6.880;2023-09-19T14:54:42;27.90;34.90
12060;DHT22;6091;51.432;6.880;2023-09-19T14:57:09;27.90;34.90
12060;DHT22;6091;51.432;6.880;2023-09-19T14:59:37;27.80;34.90
12060;DHT22;6091;51.432;6.880;2023-09-19T15:02:06;29.80;36.20
12060;DHT22;6091;51.432;6.880;2023-09-19T15:04:35;27.80;35.10
12060;DHT22;6091;51.432;6.880;2023-09-19T15:07:04;27.70;35.20
12060;DHT22;6091;51.432;6.880;2023-09-19T15:09:31;27.70;35.20
12060;DHT22;6091;51.432;6.880;2023-09-19T15:12:00;27.70;35.30
12060;DHT22;6091;51.432;6.880;2023-09-19T15:14:27;27.70;35.40
12060;DHT22;6091;51.432;6.880;2023-09-19T15:16:56;27.60;35.40
12060;DHT22;6091;51.432;6.880;2023-09-19T15:19:23;27.60;35.50
12060;DHT22;6091;51.432;6.880;2023-09-19T15:21:51;27.60;35.60
12060;DHT22;6091;51.432;6.880;2023-09-19T15:24:19;27.60;35.80
12060;DHT22;6091;51.432;6.880;2023-09-19T15:26:47;27.60;35.90
12060;DHT22;6091;51.432;6.880;2023-09-19T15:29:14;27.60;36.00
12060;DHT22;6091;51.432;6.880;2023-09-19T15:31:43;27.60;36.20
12060;DHT22;6091;51.432;6.880;2023-09-19T15:34:10;27.70;36.30
12060;DHT22;6091;51.432;6.880;2023-09-19T15:36:40;27.70;36.30
12060;DHT22;6091;51.432;6.880;2023-09-19T15:39:08;27.80;36.50
12060;DHT22;6091;51.432;6.880;2023-09-19T15:41:39;27.90;36.60
12060;DHT22;6091;51.432;6.880;2023-09-19T15:44:13;27.90;36.60
12060;DHT22;6091;51.432;6.880;2023-09-19T15:46:46;28.00;36.90
12060;DHT22;6091;51.432;6.880;2023-09-19T15:49:14;28.10;36.80
12060;DHT22;6091;51.432;6.880;2023-09-19T15:51:41;28.10;36.70
12060;DHT22;6091;51.432;6.880;2023-09-19T15:54:14;28.20;36.80
12060;DHT22;6091;51.432;6.880;2023-09-19T15:56:42;28.20;36.90
12060;DHT22;6091;51.432;6.880;2023-09-19T15:59:11;28.30;36.80
12060;DHT22;6091;51.432;6.880;2023-09-19T16:01:43;28.30;36.80
12060;DHT22;6091;51.432;6.880;2023-09-19T16:04:12;28.40;36.80
12060;DHT22;6091;51.432;6.880;2023-09-19T16:06:41;28.40;36.80
12060;DHT22;6091;51.432;6.880;2023-09-19T16:09:08;28.50;36.80
12060;DHT22;6091;51.432;6.880;2023-09-19T16:11:37;28.40;36.70
12060;DHT22;6091;51.432;6.880;2023-09-19T16:14:04;28.50;36.70
12060;DHT22;6091;51.432;6.880;2023-09-19T16:16:37;28.50;36.70
12060;DHT22;6091;51.432;6.880;2023-09-19T16:19:05;28.50;36.70
12060;DHT22;6091;51.432;6.880;2023-09-19T16:21:37;28.50;36.70
12060;DHT22;6091;51.432;6.880;2023-09-19T16:24:07;28.60;36.80
12060;DHT22;6091;51.432;6.880;2023-09-19T16:26:39;28.60;36.80
12060;DHT22;6091;51.432;6.880;2023-09-19T16:29:06;28.60;36.80
12060;DHT22;6091;51.432;6.880;2023-09-19T16:31:37;28.60;36.90
12060;DHT22;6091;51.432;6.880;2023-09-19T16:34:04;28.70;36.90
12060;DHT22;6091;51.432;6.880;2023-09-19T16:36:32;28.60;36.80
12060;DHT22;6091;51.432;6.880;2023-09-19T16:39:01;28.60;36.90
12060;DHT22;6091;51.432;6.880;2023-09-19T16:41:28;28.70;36.90
12060;DHT22;6091;51.432;6.880;2023-09-19T16:43:56;28.70;36.90
12060;DHT22;6091;51.432;6.880;2023-09-19T16:46:25;28.70;37.00
12060;DHT22;6091;51.432;6.880;2023-09-19T16:48:52;28.70;37.00
12060;DHT22;6091;51.432;6.880;2023-09-19T16:51:29;28.70;36.90
12060;DHT22;6091;51.432;6.880;2023-09-19T16:53:58;28.70;37.00